createdAt,value
2019-04-04T00:00:41.180Z,11.10
2019-04-04T00:03:14.591Z,10.99
2019-04-04T00:05:47.902Z,10.95
2019-04-04T00:08:21.307Z,10.96
2019-04-04T00:10:54.797Z,11.01
2019-04-04T00:13:28.196Z,10.91
2019-04-04T00:16:02.078Z,10.88
2019-04-04T00:18:35.496Z,10.80
2019-04-04T00:21:08.952Z,10.78
2019-04-04T00:23:42.436Z,10.64
2019-04-04T00:26:15.755Z,10.73
2019-04-04T00:28:49.196Z,10.78
2019-04-04T00:31:22.600Z,10.57
2019-04-04T00:33:56.464Z,10.68
2019-04-04T00:36:30.074Z,10.65
2019-04-04T00:39:05.204Z,10.66
2019-04-04T00:41:38.611Z,10.72
2019-04-04T00:44:12.088Z,10.65
2019-04-04T00:46:46.419Z,10.63
2019-04-04T00:49:19.876Z,10.60
2019-04-04T00:51:53.355Z,10.61
2019-04-04T00:54:26.718Z,10.53
2019-04-04T00:57:00.071Z,10.58
2019-04-04T00:59:33.554Z,10.56
2019-04-04T01:02:07.010Z,10.53
2019-04-04T01:04:40.394Z,10.47
2019-04-04T01:07:13.865Z,10.48
2019-04-04T01:09:47.912Z,10.44
2019-04-04T01:12:22.365Z,10.44
2019-04-04T01:14:55.978Z,10.44
2019-04-04T01:17:29.364Z,10.43
2019-04-04T01:20:03.077Z,10.33
2019-04-04T01:22:36.457Z,10.31
2019-04-04T01:25:10.063Z,10.30
2019-04-04T01:27:43.477Z,10.33
2019-04-04T01:30:17.456Z,10.37
2019-04-04T01:32:50.866Z,10.40
2019-04-04T01:35:24.197Z,10.38
2019-04-04T01:37:59.265Z,10.38
2019-04-04T01:40:33.623Z,10.40
2019-04-04T01:43:09.247Z,10.40
2019-04-04T01:45:44.045Z,10.38
2019-04-04T01:48:18.867Z,10.35
2019-04-04T01:50:53.736Z,10.35
2019-04-04T01:53:28.124Z,10.35
2019-04-04T01:56:05.933Z,10.34
2019-04-04T01:58:40.858Z,10.34
2019-04-04T02:01:13.135Z,10.29
2019-04-04T02:03:48.183Z,10.25
2019-04-04T02:06:21.528Z,10.24
2019-04-04T02:08:55.044Z,10.21
2019-04-04T02:11:28.438Z,10.19
2019-04-04T02:14:01.811Z,10.16
2019-04-04T02:16:35.132Z,10.13
2019-04-04T02:19:08.504Z,10.11
2019-04-04T02:21:41.830Z,10.11
2019-04-04T02:24:15.234Z,9.96
2019-04-04T02:26:48.615Z,9.89
2019-04-04T02:29:22.035Z,9.84
2019-04-04T02:31:57.143Z,9.81
2019-04-04T02:34:30.493Z,9.77
2019-04-04T02:37:03.913Z,9.53
2019-04-04T02:39:37.332Z,9.41
2019-04-04T02:42:10.731Z,9.47
2019-04-04T02:44:44.228Z,9.48
2019-04-04T02:47:18.332Z,9.46
2019-04-04T02:49:51.886Z,9.43
2019-04-04T02:52:25.291Z,9.32
2019-04-04T02:54:58.705Z,9.29
2019-04-04T02:57:32.015Z,9.29
2019-04-04T03:00:06.479Z,9.26
2019-04-04T03:02:39.840Z,9.22
2019-04-04T03:05:13.362Z,9.20
2019-04-04T03:07:46.841Z,9.16
2019-04-04T03:10:20.340Z,9.10
2019-04-04T03:12:57.990Z,8.92
2019-04-04T03:15:29.033Z,8.83
2019-04-04T03:18:05.239Z,8.77
2019-04-04T03:20:37.757Z,8.78
2019-04-04T03:23:11.168Z,8.75
2019-04-04T03:25:44.659Z,8.76
2019-04-04T03:28:19.590Z,8.74
2019-04-04T03:31:01.796Z,8.60
2019-04-04T03:33:31.581Z,8.64
2019-04-04T03:36:03.251Z,8.64
2019-04-04T03:38:36.680Z,8.63
2019-04-04T03:41:10.073Z,8.62
2019-04-04T03:43:45.783Z,8.62
2019-04-04T03:46:18.493Z,8.58
2019-04-04T03:48:51.828Z,8.57
2019-04-04T03:51:25.224Z,8.59
2019-04-04T03:54:00.237Z,8.62
2019-04-04T03:56:38.977Z,8.62
2019-04-04T03:59:08.866Z,8.62
2019-04-04T04:01:45.225Z,8.61
2019-04-04T04:04:17.346Z,8.67
2019-04-04T04:06:50.751Z,8.71
2019-04-04T04:09:26.333Z,8.75
2019-04-04T04:11:59.201Z,8.69
2019-04-04T04:14:32.584Z,8.75
2019-04-04T04:17:05.973Z,8.84
2019-04-04T04:19:39.375Z,8.89
2019-04-04T04:22:13.317Z,8.95
2019-04-04T04:24:47.841Z,9.02
2019-04-04T04:27:21.310Z,9.00
2019-04-04T04:29:54.695Z,9.03
2019-04-04T04:32:28.159Z,9.14
2019-04-04T04:35:01.679Z,9.22
2019-04-04T04:37:35.218Z,9.30
2019-04-04T04:40:13.908Z,9.32
2019-04-04T04:42:44.367Z,9.42
2019-04-04T04:45:17.762Z,9.40
2019-04-04T04:47:51.136Z,9.44
2019-04-04T04:50:24.553Z,9.52
2019-04-04T04:52:57.994Z,9.58
2019-04-04T04:55:31.392Z,9.61
2019-04-04T04:58:04.866Z,9.68
2019-04-04T05:00:40.040Z,9.77
2019-04-04T05:03:13.594Z,9.77
2019-04-04T05:05:46.938Z,9.77
2019-04-04T05:08:20.285Z,9.74
2019-04-04T05:10:53.769Z,9.78
2019-04-04T05:13:28.793Z,9.78
2019-04-04T05:16:05.191Z,9.86
2019-04-04T05:18:37.581Z,9.84
2019-04-04T05:21:11.026Z,9.86
2019-04-04T05:23:44.934Z,9.95
2019-04-04T05:26:19.581Z,10.00
2019-04-04T05:28:52.920Z,9.97
2019-04-04T05:31:26.303Z,9.98
2019-04-04T05:33:59.955Z,10.10
2019-04-04T05:36:36.041Z,10.06
2019-04-04T05:39:09.095Z,10.07
2019-04-04T05:41:42.660Z,10.07
2019-04-04T05:44:16.157Z,10.10
2019-04-04T05:46:51.907Z,10.23
2019-04-04T05:49:24.897Z,10.16
2019-04-04T05:51:58.339Z,10.16
2019-04-04T05:54:31.681Z,10.21
2019-04-04T05:57:05.110Z,10.21
2019-04-04T05:59:38.503Z,10.14
2019-04-04T06:02:12.182Z,10.12
2019-04-04T06:04:45.591Z,10.13
2019-04-04T06:07:19.020Z,10.12
2019-04-04T06:09:52.392Z,10.20
2019-04-04T06:12:25.814Z,10.14
2019-04-04T06:15:00.557Z,10.13
2019-04-04T06:17:34.243Z,10.15
2019-04-04T06:20:08.497Z,10.22
2019-04-04T06:22:41.963Z,10.17
2019-04-04T06:25:15.397Z,10.21
2019-04-04T06:27:48.747Z,10.37
2019-04-04T06:30:22.069Z,10.35
2019-04-04T06:32:55.440Z,10.36
2019-04-04T06:35:28.895Z,10.46
2019-04-04T06:38:02.351Z,10.45
2019-04-04T06:40:35.798Z,10.49
2019-04-04T06:43:11.577Z,10.42
2019-04-04T06:45:46.270Z,10.57
2019-04-04T06:48:19.481Z,10.77
2019-04-04T06:50:52.856Z,10.68
2019-04-04T06:53:26.211Z,10.64
2019-04-04T06:56:00.359Z,10.71
2019-04-04T06:58:34.445Z,10.65
2019-04-04T07:01:10.910Z,10.68
2019-04-04T07:03:42.926Z,10.67
2019-04-04T07:06:16.344Z,10.79
2019-04-04T07:08:49.773Z,10.93
2019-04-04T07:11:23.190Z,10.87
2019-04-04T07:13:57.026Z,10.79
2019-04-04T07:16:31.652Z,10.83
2019-04-04T07:19:07.853Z,10.97
2019-04-04T07:21:40.788Z,10.94
2019-04-04T07:24:14.488Z,10.87
2019-04-04T07:26:48.048Z,10.79
2019-04-04T07:29:23.022Z,10.95
2019-04-04T07:31:57.229Z,11.10
2019-04-04T07:34:30.730Z,11.22
2019-04-04T07:37:04.748Z,11.34
2019-04-04T07:39:38.536Z,11.34
2019-04-04T07:42:15.567Z,11.45
2019-04-04T07:44:47.434Z,11.61
2019-04-04T07:47:20.867Z,11.57
2019-04-04T07:49:55.024Z,11.53
2019-04-04T07:52:29.048Z,11.44
2019-04-04T07:55:02.422Z,11.41
2019-04-04T07:57:35.781Z,11.43
2019-04-04T08:00:09.387Z,11.58
2019-04-04T08:02:42.939Z,11.70
2019-04-04T08:05:16.697Z,11.68
2019-04-04T08:07:50.159Z,11.60
2019-04-04T08:10:23.520Z,11.58
2019-04-04T08:12:56.982Z,11.65
2019-04-04T08:15:30.408Z,11.48
2019-04-04T08:18:03.732Z,11.55
2019-04-04T08:20:37.196Z,11.43
2019-04-04T08:23:10.616Z,11.44
2019-04-04T08:25:43.962Z,11.25
2019-04-04T08:28:17.458Z,11.29
2019-04-04T08:30:50.782Z,11.43
2019-04-04T08:33:24.288Z,11.31
2019-04-04T08:36:05.766Z,11.29
2019-04-04T08:38:32.787Z,11.36
2019-04-04T08:41:06.251Z,11.34
2019-04-04T08:43:39.678Z,11.32
2019-04-04T08:46:13.086Z,11.45
2019-04-04T08:48:46.477Z,11.49
2019-04-04T08:51:19.815Z,11.50
2019-04-04T08:53:53.193Z,11.43
2019-04-04T08:56:26.657Z,11.56
2019-04-04T08:59:00.024Z,11.55
2019-04-04T09:01:33.373Z,11.45
2019-04-04T09:04:06.768Z,11.46
2019-04-04T09:06:40.144Z,11.69
2019-04-04T09:09:13.633Z,11.69
2019-04-04T09:11:47.087Z,11.66
2019-04-04T09:14:20.515Z,11.80
2019-04-04T09:16:54.439Z,11.74
2019-04-04T09:19:27.890Z,11.70
2019-04-04T09:22:01.239Z,11.68
2019-04-04T09:24:34.662Z,11.75
2019-04-04T09:27:08.054Z,11.84
2019-04-04T09:29:41.460Z,12.02
2019-04-04T09:32:14.774Z,11.99
2019-04-04T09:34:48.227Z,12.00
2019-04-04T09:37:21.613Z,12.20
2019-04-04T09:39:55.100Z,12.02
2019-04-04T09:42:28.716Z,12.08
2019-04-04T09:45:02.231Z,12.20
2019-04-04T09:47:35.577Z,12.10
2019-04-04T09:50:10.174Z,12.20
2019-04-04T09:52:43.679Z,12.26
2019-04-04T09:55:17.130Z,12.26
2019-04-04T09:57:50.571Z,12.14
2019-04-04T10:00:24.276Z,12.24
2019-04-04T10:02:57.807Z,12.27
2019-04-04T10:05:31.515Z,12.18
2019-04-04T10:08:05.595Z,12.22
2019-04-04T10:10:38.932Z,12.13
2019-04-04T10:13:12.253Z,12.31
2019-04-04T10:15:45.695Z,12.35
2019-04-04T10:18:19.015Z,12.30
2019-04-04T10:20:52.464Z,12.36
2019-04-04T10:23:25.793Z,12.37
2019-04-04T10:25:59.306Z,12.46
2019-04-04T10:28:32.633Z,12.58
2019-04-04T10:31:06.008Z,12.67
2019-04-04T10:33:42.063Z,12.73
2019-04-04T10:36:14.427Z,12.77
2019-04-04T10:38:47.847Z,12.87
2019-04-04T10:41:21.269Z,12.86
2019-04-04T10:43:54.666Z,12.78
2019-04-04T10:46:28.095Z,12.83
2019-04-04T10:49:01.465Z,12.96
2019-04-04T10:51:34.905Z,13.02
2019-04-04T10:54:08.248Z,13.03
2019-04-04T10:56:41.614Z,13.03
2019-04-04T10:59:15.007Z,13.09
2019-04-04T11:01:48.502Z,13.00
2019-04-04T11:04:21.830Z,13.11
2019-04-04T11:06:55.176Z,13.03
2019-04-04T11:09:36.351Z,13.03
2019-04-04T11:12:03.639Z,13.08
2019-04-04T11:14:37.030Z,12.92
2019-04-04T11:17:10.503Z,12.94
2019-04-04T11:19:43.907Z,12.96
2019-04-04T11:22:17.328Z,12.88
2019-04-04T11:24:50.822Z,13.00
2019-04-04T11:27:24.173Z,13.21
2019-04-04T11:29:57.634Z,13.31
2019-04-04T11:32:31.000Z,13.35
2019-04-04T11:35:06.331Z,13.31
2019-04-04T11:37:39.794Z,13.26
2019-04-04T11:40:13.225Z,13.21
2019-04-04T11:42:46.663Z,13.25
2019-04-04T11:45:20.132Z,13.16
2019-04-04T11:47:53.514Z,13.20
2019-04-04T11:50:26.835Z,13.30
2019-04-04T11:53:00.272Z,13.45
2019-04-04T11:55:34.259Z,13.53
2019-04-04T11:58:07.681Z,13.50
2019-04-04T12:00:45.532Z,13.50
2019-04-04T12:03:19.586Z,13.50
2019-04-04T12:05:53.012Z,13.48
2019-04-04T12:08:26.392Z,13.50
2019-04-04T12:10:59.712Z,13.60
2019-04-04T12:13:33.087Z,13.59
2019-04-04T12:16:06.516Z,13.68
2019-04-04T12:18:39.865Z,13.70
2019-04-04T12:21:13.290Z,13.61
2019-04-04T12:23:46.630Z,13.63
2019-04-04T12:26:20.075Z,13.70
2019-04-04T12:28:53.402Z,13.72
2019-04-04T12:31:26.797Z,13.75
2019-04-04T12:34:02.064Z,13.72
2019-04-04T12:36:35.209Z,13.84
2019-04-04T12:39:08.616Z,13.89
2019-04-04T12:41:41.970Z,13.89
2019-04-04T12:44:15.295Z,13.82
2019-04-04T12:46:48.734Z,13.92
2019-04-04T12:49:22.157Z,13.99
2019-04-04T12:51:55.545Z,13.98
2019-04-04T12:54:28.882Z,13.81
2019-04-04T12:57:02.293Z,13.79
2019-04-04T12:59:35.737Z,13.83
2019-04-04T13:02:09.096Z,13.81
2019-04-04T13:04:42.437Z,13.85
2019-04-04T13:07:15.886Z,13.92
2019-04-04T13:09:49.252Z,13.99
2019-04-04T13:12:22.619Z,14.03
2019-04-04T13:14:55.947Z,14.00
2019-04-04T13:17:29.395Z,13.92
2019-04-04T13:20:02.799Z,13.90
2019-04-04T13:22:36.249Z,13.91
2019-04-04T13:25:10.027Z,13.83
2019-04-04T13:27:43.424Z,13.78
2019-04-04T13:30:16.936Z,13.82
2019-04-04T13:32:50.402Z,13.90
2019-04-04T13:35:23.903Z,13.99
2019-04-04T13:37:57.243Z,14.15
2019-04-04T13:40:30.666Z,14.19
2019-04-04T13:43:04.159Z,14.18
2019-04-04T13:45:37.544Z,14.33
2019-04-04T13:48:12.707Z,14.45
2019-04-04T13:50:46.047Z,14.47
2019-04-04T13:53:20.816Z,14.52
2019-04-04T13:55:54.518Z,14.63
2019-04-04T13:58:27.872Z,14.68
2019-04-04T14:01:01.215Z,14.65
2019-04-04T14:03:34.562Z,14.80
2019-04-04T14:06:07.966Z,14.93
2019-04-04T14:08:41.421Z,14.93
2019-04-04T14:11:14.754Z,15.09
2019-04-04T14:13:49.454Z,15.07
2019-04-04T14:16:23.017Z,14.98
2019-04-04T14:18:56.378Z,14.94
2019-04-04T14:21:29.697Z,14.88
2019-04-04T14:24:12.843Z,15.01
2019-04-04T14:26:38.287Z,15.23
2019-04-04T14:29:11.706Z,15.36
2019-04-04T14:31:45.057Z,15.52
2019-04-04T14:34:18.421Z,15.69
2019-04-04T14:36:51.737Z,15.59
2019-04-04T14:39:25.080Z,15.66
2019-04-04T14:41:58.461Z,15.52
2019-04-04T14:44:31.799Z,15.48
2019-04-04T14:47:05.215Z,15.49
2019-04-04T14:49:38.559Z,15.59
2019-04-04T14:52:11.963Z,15.86
2019-04-04T14:54:45.358Z,16.11
2019-04-04T14:57:18.791Z,16.22
2019-04-04T14:59:52.119Z,16.22
2019-04-04T15:02:25.479Z,16.23
2019-04-04T15:04:58.887Z,16.18
2019-04-04T15:07:32.253Z,16.09
2019-04-04T15:10:05.839Z,16.08
2019-04-04T15:12:39.184Z,16.03
2019-04-04T15:15:12.652Z,16.12
2019-04-04T15:17:46.045Z,16.14
2019-04-04T15:20:19.453Z,16.06
2019-04-04T15:22:52.831Z,15.95
2019-04-04T15:25:26.165Z,16.00
2019-04-04T15:27:59.538Z,16.14
2019-04-04T15:30:32.896Z,15.93
2019-04-04T15:33:06.310Z,15.98
2019-04-04T15:35:39.629Z,16.06
2019-04-04T15:38:12.981Z,16.08
2019-04-04T15:40:46.376Z,16.08
2019-04-04T15:43:19.858Z,16.06
2019-04-04T15:45:53.233Z,16.08
2019-04-04T15:48:26.581Z,16.01
2019-04-04T15:51:00.002Z,15.95
2019-04-04T15:53:33.363Z,15.97
2019-04-04T15:56:06.690Z,15.81
2019-04-04T15:58:40.042Z,15.78
2019-04-04T16:01:13.430Z,15.74
2019-04-04T16:03:46.813Z,15.63
2019-04-04T16:06:20.221Z,15.68
2019-04-04T16:08:53.579Z,15.51
2019-04-04T16:11:26.954Z,15.52
2019-04-04T16:14:00.308Z,15.54
2019-04-04T16:16:33.631Z,15.59
2019-04-04T16:19:07.097Z,15.56
2019-04-04T16:21:40.513Z,15.48
2019-04-04T16:24:13.889Z,15.48
2019-04-04T16:26:47.235Z,15.49
2019-04-04T16:29:20.591Z,15.45
2019-04-04T16:31:53.926Z,15.39
2019-04-04T16:34:27.353Z,15.35
2019-04-04T16:37:00.768Z,15.31
2019-04-04T16:39:35.441Z,15.25
2019-04-04T16:42:09.016Z,15.20
2019-04-04T16:44:42.445Z,15.13
2019-04-04T16:47:15.847Z,15.04
2019-04-04T16:49:49.365Z,15.00
2019-04-04T16:52:22.771Z,14.96
2019-04-04T16:54:56.235Z,14.87
2019-04-04T16:57:29.579Z,14.79
2019-04-04T17:00:03.461Z,14.70
2019-04-04T17:02:36.787Z,14.56
2019-04-04T17:05:11.082Z,14.50
2019-04-04T17:07:44.730Z,14.50
2019-04-04T17:10:18.165Z,14.44
2019-04-04T17:12:51.719Z,14.38
2019-04-04T17:15:25.087Z,14.34
2019-04-04T17:17:58.550Z,14.30
2019-04-04T17:20:31.905Z,14.24
2019-04-04T17:23:05.307Z,14.22
2019-04-04T17:25:38.825Z,14.18
2019-04-04T17:28:12.743Z,14.03
2019-04-04T17:30:46.278Z,13.93
2019-04-04T17:33:19.763Z,13.70
2019-04-04T17:35:53.083Z,13.68
2019-04-04T17:38:26.408Z,13.66
2019-04-04T17:40:59.827Z,13.60
2019-04-04T17:43:33.548Z,13.53
2019-04-04T17:46:07.028Z,13.39
2019-04-04T17:48:40.371Z,13.29
2019-04-04T17:51:13.787Z,13.24
2019-04-04T17:53:47.131Z,13.20
2019-04-04T17:56:20.498Z,13.14
2019-04-04T17:58:53.826Z,13.08
2019-04-04T18:01:27.173Z,13.06
2019-04-04T18:04:00.559Z,13.01
2019-04-04T18:06:33.909Z,12.95
2019-04-04T18:09:08.797Z,12.90
2019-04-04T18:11:42.255Z,12.86
2019-04-04T18:14:15.695Z,12.83
2019-04-04T18:16:49.127Z,12.79
2019-04-04T18:19:22.544Z,12.75
2019-04-04T18:21:55.916Z,12.70
2019-04-04T18:24:29.348Z,12.63
2019-04-04T18:27:02.763Z,12.58
2019-04-04T18:29:36.103Z,12.51
2019-04-04T18:32:09.473Z,12.47
2019-04-04T18:34:43.030Z,12.39
2019-04-04T18:37:16.499Z,12.37
2019-04-04T18:39:49.826Z,12.32
2019-04-04T18:42:23.185Z,12.26
2019-04-04T18:44:56.513Z,12.20
2019-04-04T18:47:29.966Z,12.09
2019-04-04T18:50:04.223Z,12.09
2019-04-04T18:52:37.567Z,12.02
2019-04-04T18:55:19.637Z,12.00
2019-04-04T18:57:46.082Z,11.96
2019-04-04T19:00:21.009Z,11.92
2019-04-04T19:02:54.429Z,11.92
2019-04-04T19:05:28.150Z,11.90
2019-04-04T19:08:01.537Z,11.87
2019-04-04T19:10:34.899Z,11.85
2019-04-04T19:13:08.349Z,11.81
2019-04-04T19:15:41.796Z,11.74
2019-04-04T19:18:15.194Z,11.76
2019-04-04T19:20:48.557Z,11.77
2019-04-04T19:23:21.934Z,11.76
2019-04-04T19:25:55.302Z,11.70
2019-04-04T19:28:28.652Z,11.74
2019-04-04T19:31:02.073Z,11.73
2019-04-04T19:33:35.406Z,11.63
2019-04-04T19:36:08.841Z,11.68
2019-04-04T19:38:42.167Z,11.66
2019-04-04T19:41:15.644Z,11.73
2019-04-04T19:43:49.050Z,11.71
2019-04-04T19:46:22.425Z,11.72
2019-04-04T19:48:55.763Z,11.71
2019-04-04T19:51:29.205Z,11.71
2019-04-04T19:54:02.604Z,11.71
2019-04-04T19:56:35.997Z,11.67
2019-04-04T19:59:09.302Z,11.66
2019-04-04T20:01:42.684Z,11.69
2019-04-04T20:04:16.099Z,11.67
2019-04-04T20:06:49.540Z,11.68
2019-04-04T20:09:22.943Z,11.62
2019-04-04T20:11:56.303Z,11.60
2019-04-04T20:14:29.685Z,11.58
2019-04-04T20:17:03.123Z,11.56
2019-04-04T20:19:36.470Z,11.54
2019-04-04T20:22:09.841Z,11.50
2019-04-04T20:24:43.263Z,11.43
2019-04-04T20:27:16.680Z,11.42
2019-04-04T20:29:50.022Z,11.43
2019-04-04T20:32:23.446Z,11.40
2019-04-04T20:34:56.856Z,11.37
2019-04-04T20:37:30.240Z,11.36
2019-04-04T20:40:04.833Z,11.34
2019-04-04T20:42:38.254Z,11.32
2019-04-04T20:45:11.756Z,11.30
2019-04-04T20:47:45.118Z,11.32
2019-04-04T20:50:18.522Z,11.30
2019-04-04T20:52:51.988Z,11.30
2019-04-04T20:55:25.306Z,11.30
2019-04-04T20:57:58.704Z,11.31
2019-04-04T21:00:32.032Z,11.32
2019-04-04T21:03:05.524Z,11.34
2019-04-04T21:05:38.919Z,11.39
2019-04-04T21:08:12.288Z,11.40
2019-04-04T21:10:45.609Z,11.41
2019-04-04T21:13:19.042Z,11.42
2019-04-04T21:15:52.429Z,11.47
2019-04-04T21:18:25.802Z,11.52
2019-04-04T21:20:59.153Z,11.57
2019-04-04T21:23:32.524Z,11.61
2019-04-04T21:26:06.006Z,11.61
2019-04-04T21:28:39.386Z,11.58
2019-04-04T21:31:12.704Z,11.57
2019-04-04T21:33:46.159Z,11.51
2019-04-04T21:36:19.550Z,11.61
2019-04-04T21:38:52.965Z,11.74
2019-04-04T21:41:26.364Z,11.77
2019-04-04T21:44:08.769Z,11.83
2019-04-04T21:46:35.001Z,11.81
2019-04-04T21:49:08.390Z,11.84
2019-04-04T21:51:41.712Z,11.74
2019-04-04T21:54:15.165Z,11.82
2019-04-04T21:56:48.493Z,11.73
2019-04-04T21:59:21.880Z,11.79
2019-04-04T22:01:55.268Z,11.70
2019-04-04T22:04:28.688Z,11.69
2019-04-04T22:07:02.155Z,11.69
2019-04-04T22:09:35.593Z,11.55
2019-04-04T22:12:08.964Z,11.59
2019-04-04T22:14:42.627Z,11.57
2019-04-04T22:17:16.021Z,11.55
2019-04-04T22:19:49.354Z,11.59
2019-04-04T22:22:22.712Z,11.47
2019-04-04T22:24:56.032Z,11.51
2019-04-04T22:27:29.629Z,11.53
2019-04-04T22:30:04.303Z,11.64
2019-04-04T22:32:37.667Z,11.75
2019-04-04T22:35:11.255Z,11.76
2019-04-04T22:37:44.613Z,11.74
2019-04-04T22:40:18.011Z,11.80
2019-04-04T22:42:51.398Z,11.77
2019-04-04T22:45:24.739Z,11.62
2019-04-04T22:47:58.189Z,11.59
2019-04-04T22:50:31.526Z,11.58
2019-04-04T22:53:04.884Z,11.64
2019-04-04T22:55:38.200Z,11.53
2019-04-04T22:58:11.568Z,11.51
2019-04-04T23:00:44.967Z,11.35
2019-04-04T23:03:18.412Z,11.44
2019-04-04T23:05:51.733Z,11.62
2019-04-04T23:08:25.095Z,11.70
2019-04-04T23:10:58.489Z,11.55
2019-04-04T23:13:31.961Z,11.43
2019-04-04T23:16:05.387Z,11.31
2019-04-04T23:18:38.832Z,11.27
2019-04-04T23:21:12.282Z,11.29
2019-04-04T23:23:45.682Z,11.39
2019-04-04T23:26:19.019Z,11.32
2019-04-04T23:28:52.369Z,11.26
2019-04-04T23:31:25.824Z,11.30
2019-04-04T23:33:59.176Z,11.26
2019-04-04T23:36:35.299Z,11.31
2019-04-04T23:39:09.279Z,11.21
2019-04-04T23:41:42.597Z,11.25
2019-04-04T23:44:15.996Z,11.20
2019-04-04T23:46:49.415Z,11.17
2019-04-04T23:49:22.807Z,11.20
2019-04-04T23:51:56.181Z,11.25
2019-04-04T23:54:29.575Z,11.28
2019-04-04T23:57:02.921Z,11.27
2019-04-04T23:59:36.476Z,11.30
